createdAt,value
2018-12-18T00:01:35.171Z,15.37
2018-12-18T00:03:39.287Z,15.17
2018-12-18T00:05:39.551Z,16.77
2018-12-18T00:07:40.559Z,14.23
2018-12-18T00:09:41.594Z,14.67
2018-12-18T00:11:42.607Z,14.60
2018-12-18T00:13:43.624Z,15.50
2018-12-18T00:15:44.655Z,13.73
2018-12-18T00:17:45.667Z,15.70
2018-12-18T00:19:46.690Z,14.10
2018-12-18T00:21:47.800Z,16.83
2018-12-18T00:23:48.826Z,15.07
2018-12-18T00:25:49.835Z,15.67
2018-12-18T00:27:50.866Z,14.90
2018-12-18T00:29:51.984Z,14.80
2018-12-18T00:31:53.011Z,14.70
2018-12-18T00:33:54.027Z,14.60
2018-12-18T00:35:54.947Z,14.50
2018-12-18T00:37:56.031Z,19.63
2018-12-18T00:39:57.034Z,14.67
2018-12-18T00:42:00.084Z,15.20
2018-12-18T00:44:01.129Z,14.07
2018-12-18T00:46:02.251Z,13.93
2018-12-18T00:48:03.258Z,15.20
2018-12-18T00:50:04.272Z,13.07
2018-12-18T00:52:05.293Z,14.67
2018-12-18T00:54:06.303Z,15.13
2018-12-18T00:56:07.339Z,14.43
2018-12-18T00:58:08.352Z,13.17
2018-12-18T01:00:09.487Z,13.40
2018-12-18T01:02:10.516Z,12.63
2018-12-18T01:04:11.431Z,15.07
2018-12-18T01:06:12.451Z,12.13
2018-12-18T01:08:13.570Z,12.97
2018-12-18T01:10:14.595Z,16.10
2018-12-18T01:12:15.620Z,12.97
2018-12-18T01:14:16.635Z,13.43
2018-12-18T01:16:17.647Z,14.40
2018-12-18T01:18:18.683Z,13.73
2018-12-18T01:20:19.695Z,15.20
2018-12-18T01:22:20.714Z,12.90
2018-12-18T01:24:21.865Z,13.37
2018-12-18T01:26:22.875Z,13.27
2018-12-18T01:28:23.803Z,12.03
2018-12-18T01:30:24.819Z,13.77
2018-12-18T01:32:25.826Z,15.73
2018-12-18T01:34:26.856Z,12.70
2018-12-18T01:36:27.867Z,16.23
2018-12-18T01:38:28.880Z,12.27
2018-12-18T01:40:29.954Z,13.50
2018-12-18T01:42:30.959Z,13.53
2018-12-18T01:44:31.991Z,14.37
2018-12-18T01:46:33.003Z,13.57
2018-12-18T01:48:34.034Z,16.67
2018-12-18T01:50:35.065Z,14.13
2018-12-18T01:52:36.188Z,14.10
2018-12-18T01:54:37.201Z,14.30
2018-12-18T01:56:38.223Z,14.97
2018-12-18T01:58:39.243Z,13.50
2018-12-18T02:00:40.167Z,14.23
2018-12-18T02:02:41.201Z,15.70
2018-12-18T02:04:42.223Z,15.40
2018-12-18T02:06:43.147Z,15.77
2018-12-18T02:08:44.218Z,15.13
2018-12-18T02:10:45.335Z,14.77
2018-12-18T02:12:46.362Z,16.40
2018-12-18T02:14:47.375Z,14.73
2018-12-18T02:16:48.394Z,18.40
2018-12-18T02:18:49.447Z,13.90
2018-12-18T02:20:50.478Z,17.20
2018-12-18T02:22:51.511Z,15.23
2018-12-18T02:24:52.535Z,18.03
2018-12-18T02:26:53.554Z,18.03
2018-12-18T02:28:54.607Z,16.30
2018-12-18T02:30:55.623Z,15.70
2018-12-18T02:32:56.744Z,16.00
2018-12-18T02:34:57.783Z,14.83
2018-12-18T02:36:58.796Z,17.20
2018-12-18T02:38:59.813Z,15.90
2018-12-18T02:41:00.863Z,18.63
2018-12-18T02:43:01.907Z,17.73
2018-12-18T02:45:02.939Z,20.47
2018-12-18T02:47:03.987Z,17.40
2018-12-18T02:49:05.038Z,17.37
2018-12-18T02:51:06.131Z,16.40
2018-12-18T02:53:07.181Z,16.07
2018-12-18T02:55:08.203Z,15.63
2018-12-18T02:57:09.244Z,16.90
2018-12-18T02:59:10.279Z,16.50
2018-12-18T03:01:11.308Z,18.33
2018-12-18T03:03:12.342Z,16.20
2018-12-18T03:05:13.375Z,17.07
2018-12-18T03:07:14.413Z,21.10
2018-12-18T03:09:15.458Z,15.10
2018-12-18T03:11:20.671Z,18.40
2018-12-18T03:13:21.631Z,16.80
2018-12-18T03:15:22.663Z,18.37
2018-12-18T03:17:23.704Z,16.47
2018-12-18T03:19:24.864Z,16.80
2018-12-18T03:21:25.918Z,19.67
2018-12-18T03:23:26.943Z,24.50
2018-12-18T03:25:27.962Z,22.10
2018-12-18T03:27:28.997Z,19.53
2018-12-18T03:29:30.068Z,23.43
2018-12-18T03:31:31.584Z,19.20
2018-12-18T03:33:32.650Z,20.53
2018-12-18T03:35:33.710Z,21.53
2018-12-18T03:37:34.758Z,21.23
2018-12-18T03:39:35.806Z,20.87
2018-12-18T03:41:36.876Z,20.87
2018-12-18T03:43:37.879Z,22.70
2018-12-18T03:45:39.032Z,19.60
2018-12-18T03:47:40.158Z,19.63
2018-12-18T03:49:41.296Z,22.50
2018-12-18T03:51:42.503Z,24.77
2018-12-18T03:53:43.626Z,23.00
2018-12-18T03:55:44.679Z,24.80
2018-12-18T03:57:45.732Z,20.83
2018-12-18T03:59:46.773Z,25.70
2018-12-18T04:01:47.797Z,21.80
2018-12-18T04:03:48.843Z,23.07
2018-12-18T04:05:49.885Z,25.90
2018-12-18T04:07:50.920Z,24.83
2018-12-18T04:09:52.084Z,23.47
2018-12-18T04:11:58.847Z,24.53
2018-12-18T04:13:59.864Z,27.80
2018-12-18T04:16:00.899Z,24.63
2018-12-18T04:18:02.036Z,23.80
2018-12-18T04:20:03.076Z,29.33
2018-12-18T04:22:04.100Z,26.60
2018-12-18T04:24:05.123Z,46.77
2018-12-18T04:26:06.181Z,80.03
2018-12-18T04:28:07.320Z,30.83
2018-12-18T04:30:08.359Z,60.27
2018-12-18T04:32:09.381Z,26.73
2018-12-18T04:34:10.415Z,40.90
2018-12-18T04:36:11.443Z,29.03
2018-12-18T04:38:12.480Z,39.00
2018-12-18T04:40:13.492Z,50.57
2018-12-18T04:42:14.639Z,82.00
2018-12-18T04:44:15.671Z,34.67
2018-12-18T04:46:16.682Z,28.23
2018-12-18T04:48:17.709Z,53.87
2018-12-18T04:50:18.736Z,39.40
2018-12-18T04:52:19.768Z,26.30
2018-12-18T04:54:20.797Z,83.37
2018-12-18T04:56:21.811Z,30.50
2018-12-18T04:58:22.826Z,33.37
2018-12-18T05:00:23.864Z,87.83
2018-12-18T05:02:24.889Z,57.30
2018-12-18T05:04:25.909Z,92.27
2018-12-18T05:06:27.048Z,57.13
2018-12-18T05:08:28.173Z,42.43
2018-12-18T05:10:29.312Z,44.83
2018-12-18T05:12:30.327Z,50.60
2018-12-18T05:14:31.465Z,125.77
2018-12-18T05:16:32.647Z,56.23
2018-12-18T05:18:33.736Z,61.90
2018-12-18T05:20:34.762Z,139.60
2018-12-18T05:22:35.796Z,96.40
2018-12-18T05:24:36.914Z,46.10
2018-12-18T05:26:37.939Z,46.93
2018-12-18T05:28:38.967Z,38.57
2018-12-18T05:30:39.991Z,24.43
2018-12-18T05:32:41.024Z,49.10
2018-12-18T05:34:42.172Z,33.00
2018-12-18T05:36:43.199Z,46.47
2018-12-18T05:38:44.263Z,151.50
2018-12-18T05:40:45.192Z,100.93
2018-12-18T05:42:46.223Z,31.20
2018-12-18T05:44:47.252Z,141.63
2018-12-18T05:46:48.197Z,19.53
2018-12-18T05:48:49.315Z,128.90
2018-12-18T05:50:50.332Z,112.33
2018-12-18T05:52:51.376Z,68.10
2018-12-18T05:54:52.423Z,114.70
2018-12-18T05:56:53.443Z,55.83
2018-12-18T05:58:54.459Z,34.20
2018-12-18T06:00:55.504Z,54.47
2018-12-18T06:02:56.539Z,41.10
2018-12-18T06:05:03.235Z,105.87
2018-12-18T06:07:00.608Z,126.17
2018-12-18T06:09:01.803Z,153.47
2018-12-18T06:11:02.824Z,61.83
2018-12-18T06:13:03.867Z,46.47
2018-12-18T06:15:04.887Z,36.00
2018-12-18T06:17:05.915Z,88.03
2018-12-18T06:19:06.847Z,48.23
2018-12-18T06:21:07.795Z,72.43
2018-12-18T06:23:08.706Z,68.43
2018-12-18T06:25:09.848Z,37.40
2018-12-18T06:27:10.887Z,52.10
2018-12-18T06:29:11.903Z,59.90
2018-12-18T06:31:12.939Z,133.60
2018-12-18T06:33:13.979Z,82.13
2018-12-18T06:35:15.012Z,30.30
2018-12-18T06:37:16.119Z,54.20
2018-12-18T06:39:17.172Z,65.50
2018-12-18T06:41:18.208Z,59.63
2018-12-18T06:43:19.229Z,92.30
2018-12-18T06:45:20.271Z,31.50
2018-12-18T06:47:21.286Z,125.93
2018-12-18T06:49:22.320Z,42.83
2018-12-18T06:51:23.362Z,61.50
2018-12-18T06:53:24.385Z,41.43
2018-12-18T06:55:25.815Z,37.93
2018-12-18T06:57:27.079Z,75.93
2018-12-18T06:59:28.104Z,44.70
2018-12-18T07:01:29.144Z,63.43
2018-12-18T07:03:30.287Z,131.90
2018-12-18T07:05:31.330Z,56.40
2018-12-18T07:07:32.272Z,27.17
2018-12-18T07:09:33.307Z,104.20
2018-12-18T07:11:34.326Z,103.73
2018-12-18T07:13:35.359Z,66.63
2018-12-18T07:15:36.393Z,60.83
2018-12-18T07:17:37.404Z,43.80
2018-12-18T07:19:38.329Z,73.33
2018-12-18T07:21:39.370Z,77.93
2018-12-18T07:23:40.403Z,37.20
2018-12-18T07:25:41.435Z,59.40
2018-12-18T07:27:42.438Z,41.10
2018-12-18T07:29:43.467Z,37.23
2018-12-18T07:31:44.495Z,44.13
2018-12-18T07:33:45.519Z,31.03
2018-12-18T07:35:46.527Z,35.00
2018-12-18T07:37:47.435Z,39.60
2018-12-18T07:39:48.467Z,36.57
2018-12-18T07:41:49.475Z,65.90
2018-12-18T07:43:50.498Z,59.50
2018-12-18T07:45:51.522Z,81.97
2018-12-18T07:47:52.543Z,40.70
2018-12-18T07:49:53.551Z,43.43
2018-12-18T07:51:54.578Z,41.43
2018-12-18T07:53:55.500Z,33.47
2018-12-18T07:56:00.234Z,44.20
2018-12-18T07:57:59.544Z,76.47
2018-12-18T08:00:00.667Z,36.30
2018-12-18T08:02:01.695Z,32.17
2018-12-18T08:04:02.713Z,35.10
2018-12-18T08:06:03.743Z,41.17
2018-12-18T08:08:04.770Z,29.97
2018-12-18T08:10:05.780Z,28.60
2018-12-18T08:12:06.791Z,28.10
2018-12-18T08:14:07.831Z,29.70
2018-12-18T08:16:08.867Z,25.73
2018-12-18T08:18:09.959Z,26.07
2018-12-18T08:20:10.967Z,25.57
2018-12-18T08:22:11.987Z,26.27
2018-12-18T08:24:13.033Z,27.07
2018-12-18T08:26:14.198Z,29.77
2018-12-18T08:28:15.220Z,27.40
2018-12-18T08:30:16.235Z,31.27
2018-12-18T08:32:17.252Z,28.20
2018-12-18T08:34:18.391Z,32.37
2018-12-18T08:36:19.399Z,29.33
2018-12-18T08:38:20.418Z,32.83
2018-12-18T08:40:21.547Z,29.53
2018-12-18T08:42:22.579Z,36.27
2018-12-18T08:44:23.591Z,25.07
2018-12-18T08:46:24.610Z,28.20
2018-12-18T08:48:25.682Z,28.00
2018-12-18T08:50:26.723Z,27.30
2018-12-18T08:52:27.734Z,30.37
2018-12-18T08:54:28.779Z,28.53
2018-12-18T08:56:29.911Z,26.50
2018-12-18T08:58:30.923Z,29.83
2018-12-18T09:00:31.938Z,27.53
2018-12-18T09:02:32.973Z,30.57
2018-12-18T09:04:33.992Z,25.03
2018-12-18T09:06:35.007Z,26.67
2018-12-18T09:08:36.048Z,27.43
2018-12-18T09:10:39.908Z,29.83
2018-12-18T09:12:41.179Z,35.07
2018-12-18T09:14:46.811Z,28.73
2018-12-18T09:16:53.720Z,29.73
2018-12-18T09:18:54.831Z,27.27
2018-12-18T09:20:55.855Z,24.57
2018-12-18T09:22:56.909Z,26.63
2018-12-18T09:24:58.047Z,25.97
2018-12-18T09:26:59.074Z,26.03
2018-12-18T09:29:00.104Z,24.00
2018-12-18T09:31:01.159Z,25.33
2018-12-18T09:33:02.166Z,23.13
2018-12-18T09:35:03.354Z,26.63
2018-12-18T09:37:04.428Z,22.80
2018-12-18T09:39:11.188Z,23.87
2018-12-18T09:41:18.145Z,21.60
2018-12-18T09:43:24.818Z,22.63
2018-12-18T09:45:25.807Z,22.93
2018-12-18T09:47:26.819Z,21.13
2018-12-18T09:49:27.847Z,17.90
2018-12-18T09:51:28.755Z,19.10
2018-12-18T09:53:29.689Z,19.27
2018-12-18T09:55:30.723Z,19.83
2018-12-18T09:57:37.450Z,19.70
2018-12-18T09:59:38.475Z,20.63
2018-12-18T10:01:39.488Z,17.87
2018-12-18T10:03:40.527Z,23.23
2018-12-18T10:05:41.569Z,22.70
2018-12-18T10:07:42.591Z,20.90
2018-12-18T10:09:43.617Z,20.30
2018-12-18T10:11:44.643Z,18.57
2018-12-18T10:13:45.659Z,18.53
2018-12-18T10:15:46.769Z,17.83
2018-12-18T10:17:47.844Z,16.73
2018-12-18T10:19:48.935Z,16.50
2018-12-18T10:21:49.933Z,20.77
2018-12-18T10:23:50.978Z,18.83
2018-12-18T10:25:52.132Z,16.43
2018-12-18T10:27:53.215Z,14.03
2018-12-18T10:29:54.326Z,14.60
2018-12-18T10:31:55.455Z,15.30
2018-12-18T10:33:56.521Z,13.97
2018-12-18T10:36:02.983Z,12.77
2018-12-18T10:38:00.591Z,13.47
2018-12-18T10:40:01.723Z,15.27
2018-12-18T10:42:02.787Z,14.97
2018-12-18T10:44:03.858Z,13.83
2018-12-18T10:46:04.950Z,13.07
2018-12-18T10:48:06.018Z,13.13
2018-12-18T10:50:07.071Z,14.13
2018-12-18T10:52:08.140Z,12.80
2018-12-18T10:54:09.156Z,14.70
2018-12-18T10:56:10.304Z,13.83
2018-12-18T10:58:11.361Z,13.47
2018-12-18T11:00:18.064Z,10.50
2018-12-18T11:02:19.146Z,12.13
2018-12-18T11:04:20.287Z,9.83
2018-12-18T11:06:21.443Z,10.80
2018-12-18T11:08:22.487Z,9.63
2018-12-18T11:10:23.555Z,10.63
2018-12-18T11:12:30.327Z,10.60
2018-12-18T11:14:31.382Z,11.17
2018-12-18T11:16:37.286Z,11.37
2018-12-18T11:18:35.533Z,9.97
2018-12-18T11:20:36.566Z,9.43
2018-12-18T11:22:37.703Z,8.50
2018-12-18T11:24:38.821Z,8.20
2018-12-18T11:26:39.901Z,10.47
2018-12-18T11:28:40.986Z,10.37
2018-12-18T11:30:42.070Z,9.57
2018-12-18T11:32:43.151Z,9.33
2018-12-18T11:34:44.212Z,11.67
2018-12-18T11:36:45.274Z,9.57
2018-12-18T11:38:46.368Z,8.13
2018-12-18T11:40:47.381Z,9.00
2018-12-18T11:42:48.623Z,7.57
2018-12-18T11:44:49.647Z,7.67
2018-12-18T11:46:50.693Z,7.20
2018-12-18T11:48:52.700Z,7.53
2018-12-18T11:50:53.755Z,7.73
2018-12-18T11:52:54.886Z,6.23
2018-12-18T11:54:56.023Z,6.00
2018-12-18T11:56:57.196Z,5.90
2018-12-18T11:58:58.307Z,5.43
2018-12-18T12:00:59.563Z,6.87
2018-12-18T12:03:00.622Z,8.07
2018-12-18T12:05:01.672Z,6.67
2018-12-18T12:07:02.746Z,7.03
2018-12-18T12:09:04.035Z,9.47
2018-12-18T12:11:05.179Z,7.43
2018-12-18T12:13:06.215Z,4.70
2018-12-18T12:15:07.317Z,4.80
2018-12-18T12:17:08.380Z,5.63
2018-12-18T12:19:09.409Z,5.27
2018-12-18T12:21:10.462Z,5.63
2018-12-18T12:23:11.539Z,3.80
2018-12-18T12:25:12.575Z,6.43
2018-12-18T12:27:19.430Z,6.63
2018-12-18T12:29:20.482Z,4.30
2018-12-18T12:31:21.521Z,4.67
2018-12-18T12:33:22.567Z,4.33
2018-12-18T12:35:23.559Z,4.30
2018-12-18T12:37:24.623Z,6.70
2018-12-18T12:39:25.652Z,5.13
2018-12-18T12:41:26.665Z,3.40
2018-12-18T12:43:27.764Z,5.63
2018-12-18T12:45:29.011Z,3.60
2018-12-18T12:47:30.111Z,3.67
2018-12-18T12:49:37.018Z,5.20
2018-12-18T12:51:38.055Z,5.83
2018-12-18T12:53:39.044Z,7.73
2018-12-18T12:55:40.147Z,5.93
2018-12-18T12:57:41.156Z,4.20
2018-12-18T12:59:42.178Z,4.40
2018-12-18T13:01:43.217Z,5.17
2018-12-18T13:03:44.259Z,4.30
2018-12-18T13:05:45.353Z,6.97
2018-12-18T13:07:46.447Z,5.23
2018-12-18T13:09:47.531Z,3.83
2018-12-18T13:11:48.615Z,3.77
2018-12-18T13:13:49.644Z,4.60
2018-12-18T13:15:50.669Z,5.43
2018-12-18T13:17:51.753Z,5.57
2018-12-18T13:19:52.917Z,4.93
2018-12-18T13:21:54.057Z,4.07
2018-12-18T13:23:55.159Z,5.03
2018-12-18T13:25:56.158Z,7.70
2018-12-18T13:27:57.290Z,7.10
2018-12-18T13:29:58.552Z,5.57
2018-12-18T13:31:59.841Z,5.53
2018-12-18T13:34:02.040Z,6.30
2018-12-18T13:36:03.189Z,7.40
2018-12-18T13:38:04.365Z,7.30
2018-12-18T13:40:05.429Z,6.50
2018-12-18T13:42:06.440Z,6.77
2018-12-18T13:44:07.499Z,6.57
2018-12-18T13:46:14.793Z,5.63
2018-12-18T13:48:11.655Z,6.77
2018-12-18T13:50:12.688Z,6.93
2018-12-18T13:52:13.738Z,6.67
2018-12-18T13:54:14.855Z,6.17
2018-12-18T13:56:15.887Z,7.47
2018-12-18T13:58:16.954Z,8.20
2018-12-18T14:00:18.075Z,5.87
2018-12-18T14:02:19.114Z,5.00
2018-12-18T14:04:20.138Z,7.73
2018-12-18T14:06:21.079Z,5.53
2018-12-18T14:08:22.162Z,8.23
2018-12-18T14:10:23.294Z,6.27
2018-12-18T14:12:24.338Z,5.03
2018-12-18T14:14:25.407Z,5.90
2018-12-18T14:16:26.471Z,6.67
2018-12-18T14:18:27.639Z,6.97
2018-12-18T14:20:28.678Z,6.10
2018-12-18T14:22:29.760Z,5.90
2018-12-18T14:24:30.775Z,6.33
2018-12-18T14:26:31.870Z,6.70
2018-12-18T14:28:32.844Z,8.87
2018-12-18T14:30:33.891Z,8.23
2018-12-18T14:32:34.999Z,9.53
2018-12-18T14:34:36.103Z,7.63
2018-12-18T14:36:38.298Z,8.97
2018-12-18T14:38:39.618Z,11.33
2018-12-18T14:40:40.660Z,8.93
2018-12-18T14:42:41.739Z,9.87
2018-12-18T14:44:42.759Z,7.80
2018-12-18T14:46:43.795Z,7.13
2018-12-18T14:48:44.814Z,10.50
2018-12-18T14:50:45.857Z,9.70
2018-12-18T14:52:46.803Z,11.67
2018-12-18T14:54:47.827Z,13.50
2018-12-18T14:56:48.867Z,11.10
2018-12-18T14:58:49.992Z,11.33
2018-12-18T15:00:51.010Z,11.47
2018-12-18T15:02:52.035Z,10.93
2018-12-18T15:04:53.051Z,12.83
2018-12-18T15:06:54.138Z,10.57
2018-12-18T15:08:55.171Z,13.57
2018-12-18T15:10:56.180Z,10.67
2018-12-18T15:12:57.203Z,12.57
2018-12-18T15:14:58.232Z,11.53
2018-12-18T15:16:59.243Z,15.10
2018-12-18T15:19:00.263Z,13.97
2018-12-18T15:21:01.271Z,11.37
2018-12-18T15:23:02.299Z,11.53
2018-12-18T15:25:03.327Z,5.53
2018-12-18T15:27:04.385Z,12.27
2018-12-18T15:29:05.513Z,11.53
2018-12-18T15:31:06.640Z,9.57
2018-12-18T15:33:07.655Z,11.47
2018-12-18T15:35:08.715Z,9.87
2018-12-18T15:37:10.013Z,10.97
2018-12-18T15:39:11.151Z,11.57
2018-12-18T15:41:12.171Z,8.77
2018-12-18T15:43:13.174Z,10.17
2018-12-18T15:45:14.224Z,12.57
2018-12-18T15:47:15.235Z,9.83
2018-12-18T15:49:16.258Z,11.27
2018-12-18T15:51:17.291Z,14.73
2018-12-18T15:53:18.320Z,12.67
2018-12-18T15:55:19.417Z,14.50
2018-12-18T15:57:20.347Z,11.23
2018-12-18T15:59:21.354Z,16.03
2018-12-18T16:01:22.387Z,14.63
2018-12-18T16:03:23.467Z,15.40
2018-12-18T16:05:24.456Z,16.83
2018-12-18T16:07:25.454Z,14.07
2018-12-18T16:09:26.514Z,12.50
2018-12-18T16:11:27.528Z,12.10
2018-12-18T16:13:28.587Z,14.10
2018-12-18T16:15:29.543Z,17.17
2018-12-18T16:17:30.627Z,18.77
2018-12-18T16:19:31.955Z,18.60
2018-12-18T16:21:33.031Z,21.70
2018-12-18T16:23:34.065Z,21.50
2018-12-18T16:25:35.118Z,19.03
2018-12-18T16:27:36.189Z,17.20
2018-12-18T16:29:37.283Z,18.27
2018-12-18T16:31:38.459Z,17.67
2018-12-18T16:33:39.455Z,16.73
2018-12-18T16:35:45.997Z,16.53
2018-12-18T16:37:43.582Z,17.37
2018-12-18T16:39:44.622Z,15.97
2018-12-18T16:41:45.669Z,17.90
2018-12-18T16:43:46.719Z,17.53
2018-12-18T16:45:47.730Z,18.40
2018-12-18T16:47:48.789Z,19.47
2018-12-18T16:49:49.791Z,16.80
2018-12-18T16:51:50.895Z,18.67
2018-12-18T16:53:51.963Z,19.83
2018-12-18T16:55:53.076Z,17.83
2018-12-18T16:57:54.139Z,20.70
2018-12-18T16:59:55.279Z,17.63
2018-12-18T17:01:56.339Z,19.50
2018-12-18T17:03:57.383Z,20.77
2018-12-18T17:05:58.423Z,17.13
2018-12-18T17:07:59.428Z,19.57
2018-12-18T17:10:00.522Z,17.33
2018-12-18T17:12:01.617Z,15.50
2018-12-18T17:14:02.672Z,15.60
2018-12-18T17:16:03.812Z,13.83
2018-12-18T17:18:04.845Z,15.13
2018-12-18T17:20:05.811Z,17.43
2018-12-18T17:22:06.849Z,16.50
2018-12-18T17:24:07.867Z,16.67
2018-12-18T17:26:08.962Z,17.83
2018-12-18T17:28:10.136Z,17.00
2018-12-18T17:30:11.208Z,17.33
2018-12-18T17:32:12.235Z,19.77
2018-12-18T17:34:13.209Z,20.43
2018-12-18T17:36:14.236Z,18.33
2018-12-18T17:38:15.292Z,16.40
2018-12-18T17:40:16.355Z,17.87
2018-12-18T17:42:17.394Z,17.67
2018-12-18T17:44:18.604Z,17.40
2018-12-18T17:46:19.628Z,17.77
2018-12-18T17:48:20.626Z,19.80
2018-12-18T17:50:21.681Z,19.70
2018-12-18T17:52:22.723Z,18.07
2018-12-18T17:54:23.755Z,21.13
2018-12-18T17:56:24.766Z,24.73
2018-12-18T17:58:25.804Z,23.17
2018-12-18T18:00:26.879Z,20.67
2018-12-18T18:02:27.892Z,19.53
2018-12-18T18:04:28.991Z,22.37
2018-12-18T18:06:30.055Z,21.60
2018-12-18T18:08:31.232Z,21.47
2018-12-18T18:10:32.354Z,21.97
2018-12-18T18:12:33.383Z,24.67
2018-12-18T18:14:34.426Z,25.83
2018-12-18T18:16:35.458Z,25.93
2018-12-18T18:18:36.543Z,26.73
2018-12-18T18:20:37.519Z,26.23
2018-12-18T18:22:38.844Z,22.40
2018-12-18T18:24:39.915Z,20.33
2018-12-18T18:26:41.047Z,23.67
2018-12-18T18:28:42.123Z,18.80
2018-12-18T18:30:43.141Z,19.63
2018-12-18T18:32:44.215Z,19.67
2018-12-18T18:34:45.179Z,21.03
2018-12-18T18:36:46.236Z,19.70
2018-12-18T18:38:47.264Z,20.97
2018-12-18T18:40:48.366Z,22.57
2018-12-18T18:42:49.388Z,22.27
2018-12-18T18:44:50.537Z,20.23
2018-12-18T18:46:51.732Z,22.23
2018-12-18T18:48:52.706Z,22.67
2018-12-18T18:50:53.882Z,19.47
2018-12-18T18:52:55.056Z,19.57
2018-12-18T18:54:56.176Z,23.07
2018-12-18T18:56:57.199Z,21.13
2018-12-18T18:58:58.207Z,21.93
2018-12-18T19:00:59.538Z,21.73
2018-12-18T19:03:00.511Z,24.40
2018-12-18T19:05:01.551Z,23.53
2018-12-18T19:07:02.570Z,22.60
2018-12-18T19:09:03.608Z,19.33
2018-12-18T19:11:04.634Z,21.33
2018-12-18T19:13:05.652Z,20.70
2018-12-18T19:15:06.672Z,22.30
2018-12-18T19:17:07.804Z,20.23
2018-12-18T19:19:08.816Z,23.37
2018-12-18T19:21:10.035Z,22.13
2018-12-18T19:23:11.067Z,20.97
2018-12-18T19:25:12.071Z,22.17
2018-12-18T19:27:13.095Z,21.63
2018-12-18T19:29:14.187Z,19.73
2018-12-18T19:31:15.191Z,17.60
2018-12-18T19:33:16.220Z,17.80
2018-12-18T19:35:17.351Z,17.33
2018-12-18T19:37:18.379Z,19.30
2018-12-18T19:39:19.623Z,20.03
2018-12-18T19:41:20.627Z,23.20
2018-12-18T19:43:21.699Z,19.27
2018-12-18T19:45:22.730Z,20.90
2018-12-18T19:47:23.796Z,20.90
2018-12-18T19:49:24.820Z,20.90
2018-12-18T19:51:25.844Z,21.30
2018-12-18T19:53:26.867Z,21.67
2018-12-18T19:55:27.931Z,24.00
2018-12-18T19:57:28.943Z,23.90
2018-12-18T19:59:29.982Z,27.63
2018-12-18T20:01:30.995Z,30.97
2018-12-18T20:03:32.006Z,35.47
2018-12-18T20:05:33.022Z,30.73
2018-12-18T20:07:33.943Z,32.30
2018-12-18T20:09:34.978Z,29.63
2018-12-18T20:11:36.012Z,27.17
2018-12-18T20:13:37.131Z,25.73
2018-12-18T20:15:38.143Z,27.30
2018-12-18T20:17:39.166Z,29.87
2018-12-18T20:19:40.506Z,27.23
2018-12-18T20:21:41.479Z,29.27
2018-12-18T20:23:42.492Z,25.67
2018-12-18T20:25:44.139Z,27.57
2018-12-18T20:27:45.259Z,27.90
2018-12-18T20:29:46.503Z,28.07
2018-12-18T20:31:47.542Z,28.60
2018-12-18T20:33:48.515Z,29.30
2018-12-18T20:35:49.539Z,28.80
2018-12-18T20:37:50.579Z,26.20
2018-12-18T20:39:51.595Z,27.57
2018-12-18T20:41:52.609Z,29.10
2018-12-18T20:43:53.639Z,27.00
2018-12-18T20:45:54.646Z,26.90
2018-12-18T20:47:55.674Z,26.90
2018-12-18T20:49:57.735Z,30.93
2018-12-18T20:51:58.635Z,27.60
2018-12-18T20:53:59.651Z,25.17
2018-12-18T20:56:00.672Z,28.20
2018-12-18T20:58:01.687Z,25.30
2018-12-18T21:00:02.737Z,26.90
2018-12-18T21:17:57.276Z,29.90
2018-12-18T21:19:58.326Z,28.83
2018-12-18T21:21:59.354Z,26.77
2018-12-18T21:24:00.653Z,28.97
2018-12-18T21:26:01.697Z,26.30
2018-12-18T21:28:02.728Z,28.40
2018-12-18T21:30:03.879Z,29.60
2018-12-18T21:32:04.901Z,28.53
2018-12-18T21:34:06.047Z,27.03
2018-12-18T21:36:07.076Z,30.10
2018-12-18T21:38:08.103Z,29.93
2018-12-18T21:40:09.148Z,30.07
2018-12-18T21:42:10.201Z,30.40
2018-12-18T21:44:11.443Z,34.60
2018-12-18T21:46:12.522Z,31.80
2018-12-18T21:48:13.571Z,32.70
2018-12-18T21:50:14.697Z,31.83
2018-12-18T21:52:15.824Z,31.03
2018-12-18T21:54:16.879Z,31.67
2018-12-18T21:56:17.907Z,35.50
2018-12-18T21:58:18.921Z,33.60
2018-12-18T22:00:20.072Z,35.80
2018-12-18T22:02:21.111Z,36.53
2018-12-18T22:04:22.160Z,32.17
2018-12-18T22:06:23.175Z,33.83
2018-12-18T22:08:24.216Z,33.67
2018-12-18T22:10:25.231Z,33.03
2018-12-18T22:12:26.258Z,31.27
2018-12-18T22:14:27.156Z,31.20
2018-12-18T22:16:28.231Z,29.23
2018-12-18T22:18:29.165Z,34.60
2018-12-18T22:20:30.283Z,30.33
2018-12-18T22:22:31.287Z,32.40
2018-12-18T22:24:32.375Z,31.80
2018-12-18T22:26:33.395Z,31.53
2018-12-18T22:28:34.492Z,32.47
2018-12-18T22:30:35.575Z,30.83
2018-12-18T22:32:36.596Z,32.00
2018-12-18T22:34:37.500Z,32.20
2018-12-18T22:36:38.526Z,33.07
2018-12-18T22:38:43.539Z,33.77
2018-12-18T22:40:42.551Z,36.03
2018-12-18T22:42:43.579Z,37.17
2018-12-18T22:44:44.595Z,39.00
2018-12-18T22:46:45.620Z,34.77
2018-12-18T22:48:46.642Z,34.60
2018-12-18T22:50:47.664Z,36.27
2018-12-18T22:52:48.689Z,31.70
2018-12-18T22:54:49.723Z,32.03
2018-12-18T22:56:50.753Z,37.80
2018-12-18T22:58:51.872Z,33.13
2018-12-18T23:00:58.740Z,34.50
2018-12-18T23:02:59.923Z,33.00
2018-12-18T23:05:00.998Z,33.00
2018-12-18T23:07:02.163Z,36.07
2018-12-18T23:09:03.690Z,39.03
2018-12-18T23:11:04.832Z,34.90
2018-12-18T23:13:05.955Z,37.03
2018-12-18T23:15:07.003Z,39.53
2018-12-18T23:17:08.020Z,37.70
2018-12-18T23:19:09.046Z,36.63
2018-12-18T23:21:10.059Z,38.47
2018-12-18T23:23:11.077Z,36.73
2018-12-18T23:25:12.112Z,36.67
2018-12-18T23:27:13.123Z,37.33
2018-12-18T23:29:14.199Z,34.60
2018-12-18T23:31:15.225Z,37.13
2018-12-18T23:33:16.353Z,38.47
2018-12-18T23:35:17.355Z,39.13
2018-12-18T23:37:18.427Z,39.33
2018-12-18T23:39:19.459Z,35.93
2018-12-18T23:41:20.485Z,33.97
2018-12-18T23:43:21.647Z,33.40
2018-12-18T23:45:22.883Z,33.23
2018-12-18T23:47:23.914Z,33.07
2018-12-18T23:49:24.948Z,32.57
2018-12-18T23:51:25.975Z,33.00
2018-12-18T23:53:27.024Z,32.33
2018-12-18T23:55:28.062Z,31.13
2018-12-18T23:57:29.095Z,31.37
2018-12-18T23:59:30.139Z,31.53
